Time;durP1;ratioP1;P1;durP2;ratioP2;P2;SDS_P1;SDS_P2;PMS_P1;PMS_P2;Temp;Humidity;BMP_temperature;BMP_pressure;BME280_temperature;BME280_humidity;BME280_pressure;Samples;Min_cycle;Max_cycle;Signal;HPM_P1;HPM_P2
2024/04/15 00:01:59;;;;;;;4.20;2.13;;;;;;;;;;5300591;27;20042;-65
2024/04/15 00:04:24;;;;;;;3.95;2.20;;;;;;;;;;5297832;27;20013;-63
2024/04/15 00:06:49;;;;;;;3.70;2.15;;;;;;;;;;5303315;26;19997;-65
2024/04/15 00:09:15;;;;;;;5.22;2.60;;;;;;;;;;5278745;26;20441;-63
2024/04/15 00:11:40;;;;;;;5.28;2.35;;;;;;;;;;5269308;27;20002;-63
2024/04/15 00:14:05;;;;;;;6.35;2.22;;;;;;;;;;5279810;26;20415;-61
2024/04/15 00:16:31;;;;;;;4.00;2.30;;;;;;;;;;5285587;27;20002;-61
2024/04/15 00:18:56;;;;;;;6.30;2.30;;;;;;;;;;5270681;27;20116;-62
2024/04/15 00:21:21;;;;;;;6.15;1.92;;;;;;;;;;5269934;27;20006;-63
2024/04/15 00:23:47;;;;;;;3.35;2.05;;;;;;;;;;5275700;27;20075;-61
2024/04/15 00:26:12;;;;;;;3.72;2.13;;;;;;;;;;5287013;26;20420;-62
2024/04/15 00:28:37;;;;;;;4.13;2.05;;;;;;;;;;5270191;26;20012;-60
2024/04/15 00:31:03;;;;;;;4.03;2.10;;;;;;;;;;5269405;27;20539;-60
2024/04/15 00:33:28;;;;;;;3.53;2.10;;;;;;;;;;5281151;26;19999;-61
2024/04/15 00:35:53;;;;;;;3.40;2.33;;;;;;;;;;5302332;26;20061;-61
2024/04/15 00:38:18;;;;;;;5.05;2.28;;;;;;;;;;5271938;27;20002;-62
2024/04/15 00:40:44;;;;;;;4.20;2.15;;;;;;;;;;5269845;27;20017;-62
2024/04/15 00:43:09;;;;;;;6.93;2.25;;;;;;;;;;5269026;27;20032;-59
2024/04/15 00:45:34;;;;;;;4.03;2.30;;;;;;;;;;5293888;27;20077;-64
2024/04/15 00:48:03;;;;;;;5.25;2.45;;;;;;;;;;5270728;27;20018;-60
2024/04/15 00:50:29;;;;;;;5.15;2.50;;;;;;;;;;5288775;27;20523;-64
2024/04/15 00:52:54;;;;;;;5.03;2.45;;;;;;;;;;5289943;27;20005;-60
2024/04/15 00:55:20;;;;;;;4.40;2.17;;;;;;;;;;5268732;26;20018;-61
2024/04/15 00:57:46;;;;;;;3.35;2.25;;;;;;;;;;5247847;27;20006;-61
2024/04/15 01:00:14;;;;;;;3.92;2.30;;;;;;;;;;5304249;27;20015;-60
2024/04/15 01:02:39;;;;;;;3.67;2.65;;;;;;;;;;5294682;27;20046;-59
2024/04/15 01:05:05;;;;;;;3.75;2.50;;;;;;;;;;5247589;27;20128;-63
2024/04/15 01:07:30;;;;;;;6.38;2.53;;;;;;;;;;5291217;26;20499;-59
2024/04/15 01:09:56;;;;;;;4.78;2.35;;;;;;;;;;5299892;26;20615;-61
2024/04/15 01:12:21;;;;;;;4.93;2.40;;;;;;;;;;5268518;27;20053;-62
2024/04/15 01:14:46;;;;;;;4.53;2.55;;;;;;;;;;5260627;27;20016;-62
2024/04/15 01:17:12;;;;;;;4.57;2.58;;;;;;;;;;5274822;27;20017;-58
2024/04/15 01:19:37;;;;;;;3.67;2.33;;;;;;;;;;5270096;27;20006;-63
2024/04/15 01:22:02;;;;;;;6.35;2.60;;;;;;;;;;5284007;27;20481;-60
2024/04/15 01:24:28;;;;;;;3.72;2.45;;;;;;;;;;5289898;27;20002;-62
2024/04/15 01:26:53;;;;;;;3.83;2.60;;;;;;;;;;5275162;27;20489;-63
2024/04/15 01:29:18;;;;;;;3.88;2.40;;;;;;;;;;5269107;27;20022;-64
2024/04/15 01:31:44;;;;;;;6.25;2.90;;;;;;;;;;5269560;27;20002;-62
2024/04/15 01:34:09;;;;;;;5.57;2.88;;;;;;;;;;5271224;26;20007;-62
2024/04/15 01:36:34;;;;;;;4.72;2.30;;;;;;;;;;5241737;27;20014;-61
2024/04/15 01:39:00;;;;;;;3.70;2.88;;;;;;;;;;5270084;27;20092;-60
2024/04/15 01:41:25;;;;;;;3.88;2.30;;;;;;;;;;5290565;27;20016;-58
2024/04/15 01:43:50;;;;;;;4.10;2.38;;;;;;;;;;5306280;27;20214;-61
2024/04/15 01:46:16;;;;;;;4.97;2.70;;;;;;;;;;5292147;27;20453;-63
2024/04/15 01:48:41;;;;;;;4.15;2.60;;;;;;;;;;5272576;27;20002;-60
2024/04/15 01:51:06;;;;;;;3.88;2.40;;;;;;;;;;5274047;27;20002;-59
2024/04/15 01:53:31;;;;;;;4.32;2.33;;;;;;;;;;5297167;27;20002;-60
2024/04/15 01:55:57;;;;;;;5.05;2.78;;;;;;;;;;5284888;27;20050;-58
2024/04/15 01:58:23;;;;;;;3.78;2.55;;;;;;;;;;5289982;27;20085;-63
2024/04/15 02:00:48;;;;;;;5.22;3.08;;;;;;;;;;5306643;26;20002;-64
2024/04/15 02:03:13;;;;;;;4.15;2.65;;;;;;;;;;5300266;26;20037;-63
2024/04/15 02:05:39;;;;;;;6.18;2.50;;;;;;;;;;5285420;27;20016;-64
2024/04/15 02:08:04;;;;;;;4.22;2.60;;;;;;;;;;5272872;27;20034;-60
2024/04/15 02:10:29;;;;;;;4.75;2.67;;;;;;;;;;5272495;27;20006;-63
2024/04/15 02:12:54;;;;;;;3.20;2.50;;;;;;;;;;5270955;27;20080;-59
2024/04/15 02:15:20;;;;;;;4.38;2.78;;;;;;;;;;5283986;26;20412;-62
2024/04/15 02:17:45;;;;;;;5.70;2.35;;;;;;;;;;5274537;27;20453;-61
2024/04/15 02:20:10;;;;;;;4.82;2.42;;;;;;;;;;5272663;27;20025;-58
2024/04/15 02:22:36;;;;;;;3.75;2.53;;;;;;;;;;5272102;27;20024;-62
2024/04/15 02:25:03;;;;;;;5.00;2.88;;;;;;;;;;5284163;27;20069;-61
2024/04/15 02:27:34;;;;;;;4.47;2.28;;;;;;;;;;5299717;26;20006;-61
2024/04/15 02:29:59;;;;;;;3.83;2.75;;;;;;;;;;5277689;27;20002;-60
2024/04/15 02:32:24;;;;;;;4.22;2.53;;;;;;;;;;5302530;26;20412;-61
2024/04/15 02:34:50;;;;;;;4.90;2.50;;;;;;;;;;5262962;27;19994;-61
2024/04/15 02:37:15;;;;;;;4.47;2.70;;;;;;;;;;5285631;26;20026;-58
2024/04/15 02:39:41;;;;;;;5.95;2.75;;;;;;;;;;5272708;27;20013;-60
2024/04/15 02:42:06;;;;;;;4.57;2.90;;;;;;;;;;5282545;27;20331;-58
2024/04/15 02:44:31;;;;;;;4.50;2.90;;;;;;;;;;5298753;26;20010;-60
2024/04/15 02:46:57;;;;;;;3.58;2.83;;;;;;;;;;5276284;26;20073;-60
2024/04/15 02:49:22;;;;;;;4.22;2.60;;;;;;;;;;5282345;26;19998;-61
2024/04/15 02:51:47;;;;;;;3.47;2.70;;;;;;;;;;5289928;27;20012;-63
2024/04/15 02:54:13;;;;;;;4.03;2.65;;;;;;;;;;5303471;26;19997;-63
2024/04/15 02:56:41;;;;;;;3.42;2.47;;;;;;;;;;5301793;26;19998;-58
2024/04/15 02:59:06;;;;;;;6.20;2.85;;;;;;;;;;5273394;26;20460;-59
2024/04/15 03:01:31;;;;;;;5.47;2.47;;;;;;;;;;5287224;26;20077;-58
2024/04/15 03:03:57;;;;;;;4.13;2.92;;;;;;;;;;5284177;26;20386;-58
2024/04/15 03:06:22;;;;;;;4.30;2.50;;;;;;;;;;5277556;26;20609;-57
2024/04/15 03:08:47;;;;;;;4.18;2.53;;;;;;;;;;5284368;26;20005;-58
2024/04/15 03:11:13;;;;;;;2.97;2.30;;;;;;;;;;5288243;26;19997;-58
2024/04/15 03:13:38;;;;;;;4.05;2.40;;;;;;;;;;5287419;26;20002;-58
2024/04/15 03:16:04;;;;;;;4.53;2.20;;;;;;;;;;5283350;26;20020;-58
2024/04/15 03:18:29;;;;;;;5.10;2.40;;;;;;;;;;5284819;26;20075;-59
2024/04/15 03:20:55;;;;;;;4.90;2.42;;;;;;;;;;5283174;26;20014;-58
2024/04/15 03:23:20;;;;;;;3.72;2.13;;;;;;;;;;5283906;26;20020;-58
2024/04/15 03:25:45;;;;;;;4.20;2.50;;;;;;;;;;5304108;26;20000;-58
2024/04/15 03:28:11;;;;;;;4.22;2.20;;;;;;;;;;5283612;26;20018;-59
2024/04/15 03:30:36;;;;;;;4.05;2.42;;;;;;;;;;5284044;26;20072;-58
2024/04/15 03:33:01;;;;;;;4.50;2.15;;;;;;;;;;5284350;26;20014;-59
2024/04/15 03:35:27;;;;;;;3.90;2.40;;;;;;;;;;5286741;26;20001;-59
2024/04/15 03:37:52;;;;;;;3.20;2.05;;;;;;;;;;5282330;26;20022;-59
2024/04/15 03:40:17;;;;;;;2.90;2.05;;;;;;;;;;5283063;26;20030;-59
2024/04/15 03:42:42;;;;;;;3.67;2.40;;;;;;;;;;5284117;26;20005;-59
2024/04/15 03:45:08;;;;;;;3.78;2.20;;;;;;;;;;5281015;26;20020;-59
2024/04/15 03:47:33;;;;;;;3.85;2.28;;;;;;;;;;5284689;26;20441;-59
2024/04/15 03:49:58;;;;;;;4.55;2.20;;;;;;;;;;5288216;26;20016;-60
2024/04/15 03:52:24;;;;;;;3.20;2.13;;;;;;;;;;5282721;26;20006;-60
2024/04/15 03:54:49;;;;;;;3.17;2.33;;;;;;;;;;5280908;26;20003;-60
2024/04/15 03:57:14;;;;;;;3.53;2.25;;;;;;;;;;5284609;26;20109;-60
2024/04/15 03:59:40;;;;;;;3.70;2.00;;;;;;;;;;5284648;26;19993;-60
2024/04/15 04:02:05;;;;;;;3.15;2.30;;;;;;;;;;5284648;26;20009;-61
2024/04/15 04:04:31;;;;;;;3.42;2.10;;;;;;;;;;5280626;26;20325;-59
2024/04/15 04:07:00;;;;;;;4.05;2.60;;;;;;;;;;5280069;26;20440;-59
2024/04/15 04:09:26;;;;;;;4.30;2.30;;;;;;;;;;5285618;26;20021;-61
2024/04/15 04:11:51;;;;;;;3.47;2.15;;;;;;;;;;5285582;26;20010;-59
2024/04/15 04:14:16;;;;;;;5.78;2.72;;;;;;;;;;5284726;26;20042;-59
2024/04/15 04:16:45;;;;;;;3.50;2.35;;;;;;;;;;5283323;26;20006;-60
2024/04/15 04:19:11;;;;;;;2.97;2.08;;;;;;;;;;5282330;26;20016;-60
2024/04/15 04:21:36;;;;;;;3.92;2.17;;;;;;;;;;5281169;26;20044;-67
2024/04/15 04:24:02;;;;;;;3.45;2.22;;;;;;;;;;5284384;26;20328;-59
2024/04/15 04:26:27;;;;;;;3.30;2.28;;;;;;;;;;5281046;26;20002;-62
2024/04/15 04:28:53;;;;;;;3.00;2.00;;;;;;;;;;5284308;26;20128;-61
2024/04/15 04:31:18;;;;;;;3.95;2.30;;;;;;;;;;5280765;26;20009;-61
2024/04/15 04:33:43;;;;;;;4.28;2.40;;;;;;;;;;5284480;26;20325;-63
2024/04/15 04:36:09;;;;;;;3.85;2.20;;;;;;;;;;5281141;26;20014;-60
2024/04/15 04:38:34;;;;;;;4.13;2.35;;;;;;;;;;5281615;26;19994;-59
2024/04/15 04:41:00;;;;;;;3.15;2.40;;;;;;;;;;5281319;26;20108;-59
2024/04/15 04:43:25;;;;;;;3.53;2.40;;;;;;;;;;5287007;26;20476;-60
2024/04/15 04:45:51;;;;;;;3.85;2.50;;;;;;;;;;5285034;26;20040;-59
2024/04/15 04:48:16;;;;;;;4.00;2.65;;;;;;;;;;5282287;26;20347;-60
2024/04/15 04:50:43;;;;;;;3.65;2.28;;;;;;;;;;5281688;26;20014;-59
2024/04/15 04:53:08;;;;;;;4.72;2.78;;;;;;;;;;5280148;26;20392;-60
2024/04/15 04:55:36;;;;;;;4.35;2.38;;;;;;;;;;5282367;26;20013;-60
2024/04/15 04:58:06;;;;;;;6.60;2.70;;;;;;;;;;5283002;26;19998;-59
2024/04/15 05:00:31;;;;;;;8.43;2.88;;;;;;;;;;5280228;26;20363;-60
2024/04/15 05:02:56;;;;;;;6.75;2.30;;;;;;;;;;5285942;26;19997;-60
2024/04/15 05:05:22;;;;;;;6.28;2.95;;;;;;;;;;5281381;26;20005;-60
2024/04/15 05:07:47;;;;;;;6.35;3.00;;;;;;;;;;5286041;26;19997;-60
2024/04/15 05:10:13;;;;;;;8.55;2.80;;;;;;;;;;5287241;26;20006;-60
2024/04/15 05:12:38;;;;;;;6.60;2.85;;;;;;;;;;5280806;26;20467;-60
2024/04/15 05:15:04;;;;;;;6.85;3.20;;;;;;;;;;5278852;26;20232;-60
2024/04/15 05:17:29;;;;;;;7.72;2.75;;;;;;;;;;5270412;26;22291;-60
2024/04/15 05:19:54;;;;;;;8.00;3.25;;;;;;;;;;5283012;26;20002;-61
2024/04/15 05:22:19;;;;;;;10.95;3.28;;;;;;;;;;5280044;26;20020;-60
2024/04/15 05:24:45;;;;;;;11.20;3.40;;;;;;;;;;5285254;26;21935;-60
2024/04/15 05:27:10;;;;;;;5.28;3.10;;;;;;;;;;5280647;26;20006;-60
2024/04/15 05:29:35;;;;;;;11.23;3.42;;;;;;;;;;5279588;26;20017;-60
2024/04/15 05:32:01;;;;;;;6.63;3.28;;;;;;;;;;5282225;26;19997;-60
2024/04/15 05:34:26;;;;;;;9.70;3.03;;;;;;;;;;5283827;26;20002;-60
2024/04/15 05:36:51;;;;;;;7.70;3.35;;;;;;;;;;5281867;26;20628;-60
2024/04/15 05:39:17;;;;;;;9.00;3.20;;;;;;;;;;5281684;26;20005;-60
2024/04/15 05:41:42;;;;;;;8.73;3.25;;;;;;;;;;5281241;26;20132;-60
2024/04/15 05:44:07;;;;;;;12.73;3.20;;;;;;;;;;5278857;26;19998;-61
2024/04/15 05:46:35;;;;;;;9.65;3.72;;;;;;;;;;5279505;26;20313;-61
2024/04/15 05:49:00;;;;;;;11.70;3.80;;;;;;;;;;5279918;26;20065;-60
2024/04/15 05:51:26;;;;;;;9.13;3.47;;;;;;;;;;5281122;26;20017;-61
2024/04/15 05:53:51;;;;;;;9.40;3.00;;;;;;;;;;5280762;26;20002;-60
2024/04/15 05:56:16;;;;;;;6.15;3.50;;;;;;;;;;5281375;26;20058;-61
2024/04/15 05:58:42;;;;;;;11.93;3.70;;;;;;;;;;5272001;26;20402;-61
2024/04/15 06:01:07;;;;;;;10.98;3.92;;;;;;;;;;5286177;26;20010;-61
2024/04/15 06:03:32;;;;;;;10.45;3.45;;;;;;;;;;5282465;26;20018;-61
2024/04/15 06:05:57;;;;;;;9.18;3.72;;;;;;;;;;5278733;26;20010;-60
2024/04/15 06:08:23;;;;;;;10.60;3.72;;;;;;;;;;5281149;26;20034;-60
2024/04/15 06:10:48;;;;;;;8.57;3.75;;;;;;;;;;5282827;26;19998;-60
2024/04/15 06:13:14;;;;;;;5.97;3.30;;;;;;;;;;5248338;26;20006;-60
2024/04/15 06:15:39;;;;;;;10.77;3.88;;;;;;;;;;5284413;26;20091;-61
2024/04/15 06:18:04;;;;;;;8.73;3.63;;;;;;;;;;5278744;26;20017;-57
2024/04/15 06:20:30;;;;;;;9.57;3.95;;;;;;;;;;5248452;27;20037;-59
2024/04/15 06:22:55;;;;;;;8.98;4.03;;;;;;;;;;5281253;26;20454;-58
2024/04/15 06:25:20;;;;;;;8.75;3.40;;;;;;;;;;5280545;26;20001;-59
2024/04/15 06:27:46;;;;;;;6.97;3.22;;;;;;;;;;5284600;26;20016;-61
2024/04/15 06:30:11;;;;;;;10.20;3.70;;;;;;;;;;5290101;26;20524;-59
2024/04/15 06:32:36;;;;;;;9.88;4.10;;;;;;;;;;5294321;26;20021;-62
2024/04/15 06:35:02;;;;;;;12.13;4.38;;;;;;;;;;5286346;26;20004;-63
2024/04/15 06:37:27;;;;;;;10.65;3.95;;;;;;;;;;5286058;26;20017;-59
2024/04/15 06:39:52;;;;;;;11.27;3.78;;;;;;;;;;5288562;26;20570;-60
2024/04/15 06:42:18;;;;;;;10.90;4.25;;;;;;;;;;5284718;26;20405;-60
2024/04/15 06:44:43;;;;;;;8.73;3.97;;;;;;;;;;5284195;27;20029;-65
2024/04/15 06:47:08;;;;;;;10.15;3.50;;;;;;;;;;5284715;26;20187;-61
2024/04/15 06:49:34;;;;;;;10.50;4.20;;;;;;;;;;5290242;26;20002;-60
2024/04/15 06:51:59;;;;;;;10.98;4.05;;;;;;;;;;5285696;26;20324;-60
2024/04/15 06:54:24;;;;;;;6.88;3.67;;;;;;;;;;5287438;26;20033;-59
2024/04/15 06:56:50;;;;;;;8.60;3.83;;;;;;;;;;5283417;26;20012;-64
2024/04/15 06:59:15;;;;;;;9.52;3.67;;;;;;;;;;5285658;26;20497;-65
2024/04/15 07:01:40;;;;;;;10.27;3.70;;;;;;;;;;5291059;26;19999;-64
2024/04/15 07:04:06;;;;;;;6.45;3.60;;;;;;;;;;5287630;26;20006;-64
2024/04/15 07:06:31;;;;;;;8.30;3.60;;;;;;;;;;5255629;27;20030;-58
2024/04/15 07:08:56;;;;;;;9.45;3.80;;;;;;;;;;5285266;26;20482;-58
2024/04/15 07:11:22;;;;;;;8.93;4.00;;;;;;;;;;5284780;26;20372;-65
2024/04/15 07:13:47;;;;;;;8.65;3.58;;;;;;;;;;5285390;26;20080;-64
2024/04/15 07:16:12;;;;;;;8.55;3.60;;;;;;;;;;5293903;26;19998;-57
2024/04/15 07:18:38;;;;;;;10.13;3.33;;;;;;;;;;5286832;26;20005;-59
2024/04/15 07:21:03;;;;;;;8.90;4.07;;;;;;;;;;5286767;26;19998;-60
2024/04/15 07:23:28;;;;;;;7.63;3.67;;;;;;;;;;5283059;26;19997;-59
2024/04/15 07:26:00;;;;;;;6.95;3.72;;;;;;;;;;5282538;26;20124;-60
2024/04/15 07:28:26;;;;;;;6.47;3.40;;;;;;;;;;5254852;26;20015;-58
2024/04/15 07:30:55;;;;;;;10.10;3.17;;;;;;;;;;5290018;26;20347;-63
2024/04/15 07:33:20;;;;;;;8.40;3.90;;;;;;;;;;5288067;26;20109;-60
2024/04/15 07:35:52;;;;;;;6.75;3.63;;;;;;;;;;5284891;26;20306;-59
2024/04/15 07:38:17;;;;;;;7.32;3.40;;;;;;;;;;5285234;26;19994;-58
2024/04/15 07:40:43;;;;;;;6.68;3.40;;;;;;;;;;5285708;26;20006;-58
2024/04/15 07:43:09;;;;;;;6.78;3.35;;;;;;;;;;5284163;26;20048;-56
2024/04/15 07:45:34;;;;;;;7.72;3.40;;;;;;;;;;5285092;26;20018;-57
2024/04/15 07:47:59;;;;;;;6.45;3.10;;;;;;;;;;5254993;27;20429;-56
2024/04/15 07:50:25;;;;;;;7.68;3.40;;;;;;;;;;5283718;26;20005;-56
2024/04/15 07:52:50;;;;;;;7.22;3.30;;;;;;;;;;5303239;26;20009;-59
2024/04/15 07:55:16;;;;;;;7.93;3.15;;;;;;;;;;5285294;26;19997;-58
2024/04/15 07:57:41;;;;;;;8.93;3.17;;;;;;;;;;5284660;26;20001;-62
2024/04/15 08:00:07;;;;;;;5.93;2.83;;;;;;;;;;5284103;26;20030;-61
2024/04/15 08:02:33;;;;;;;7.13;3.47;;;;;;;;;;5291256;26;19999;-59
2024/04/15 08:04:58;;;;;;;7.68;3.13;;;;;;;;;;5279613;26;20079;-65
2024/04/15 08:07:23;;;;;;;6.53;3.47;;;;;;;;;;5284151;26;20731;-57
2024/04/15 08:09:48;;;;;;;8.55;3.40;;;;;;;;;;5296124;26;19994;-56
2024/04/15 08:12:14;;;;;;;8.13;3.20;;;;;;;;;;5284728;26;20058;-56
2024/04/15 08:14:39;;;;;;;7.38;3.50;;;;;;;;;;5286199;26;19998;-55
2024/04/15 08:17:04;;;;;;;6.38;2.80;;;;;;;;;;5286240;26;20514;-56
2024/04/15 08:19:30;;;;;;;5.35;2.78;;;;;;;;;;5284179;26;20374;-57
2024/04/15 08:21:55;;;;;;;6.43;3.30;;;;;;;;;;5282842;26;20010;-57
2024/04/15 08:24:20;;;;;;;7.20;2.90;;;;;;;;;;5284817;26;20215;-56
2024/04/15 08:26:46;;;;;;;6.60;3.10;;;;;;;;;;5286583;27;20001;-59
2024/04/15 08:29:11;;;;;;;6.00;3.25;;;;;;;;;;5283802;26;20009;-56
2024/04/15 08:31:37;;;;;;;5.13;3.28;;;;;;;;;;5287491;26;20082;-57
2024/04/15 08:34:02;;;;;;;4.53;3.00;;;;;;;;;;5289246;26;20014;-58
2024/04/15 08:36:27;;;;;;;7.60;3.20;;;;;;;;;;5283630;26;20064;-65
2024/04/15 08:38:53;;;;;;;4.00;2.80;;;;;;;;;;5283038;26;20009;-59
2024/04/15 08:41:24;;;;;;;6.25;2.90;;;;;;;;;;5284854;26;20012;-55
2024/04/15 08:43:49;;;;;;;5.60;3.25;;;;;;;;;;5267792;26;20444;-60
2024/04/15 08:46:16;;;;;;;5.22;2.90;;;;;;;;;;5254476;27;20085;-59
2024/04/15 08:48:42;;;;;;;6.78;2.90;;;;;;;;;;5282588;26;20129;-66
2024/04/15 08:51:07;;;;;;;6.28;2.83;;;;;;;;;;5287785;26;20076;-57
2024/04/15 08:53:32;;;;;;;4.60;2.55;;;;;;;;;;5281245;26;20009;-60
2024/04/15 08:55:57;;;;;;;5.65;2.80;;;;;;;;;;5284322;26;20002;-64
2024/04/15 08:58:23;;;;;;;5.57;2.75;;;;;;;;;;5271150;27;20538;-58
2024/04/15 09:00:48;;;;;;;5.57;2.60;;;;;;;;;;5272725;26;20002;-60
2024/04/15 09:03:13;;;;;;;4.70;2.50;;;;;;;;;;5254796;26;20030;-60
2024/04/15 09:05:39;;;;;;;5.72;2.45;;;;;;;;;;5302963;27;20019;-60
2024/04/15 09:08:04;;;;;;;5.47;2.50;;;;;;;;;;5285371;26;20033;-59
2024/04/15 09:10:30;;;;;;;5.15;2.90;;;;;;;;;;5288056;26;20347;-57
2024/04/15 09:12:59;;;;;;;5.35;2.63;;;;;;;;;;5282192;26;20001;-56
2024/04/15 09:15:25;;;;;;;;;;;;;;;;;;5283341;26;20116;-59
2024/04/15 09:17:52;;;;;;;7.25;2.85;;;;;;;;;;5286174;26;19957;-60
2024/04/15 09:20:19;;;;;;;5.90;3.08;;;;;;;;;;5280087;26;20002;-58
2024/04/15 09:22:44;;;;;;;4.57;2.60;;;;;;;;;;5280653;26;20017;-60
2024/04/15 09:25:10;;;;;;;4.43;2.58;;;;;;;;;;5287490;26;20350;-58
2024/04/15 09:27:35;;;;;;;5.47;2.78;;;;;;;;;;5286030;26;19999;-58
2024/04/15 09:30:01;;;;;;;7.63;2.97;;;;;;;;;;5282618;26;20017;-60
2024/04/15 09:32:27;;;;;;;5.22;2.97;;;;;;;;;;5286013;26;20032;-57
2024/04/15 09:34:53;;;;;;;6.18;2.88;;;;;;;;;;5286702;26;20426;-57
2024/04/15 09:37:18;;;;;;;4.60;2.55;;;;;;;;;;5284799;26;19998;-60
2024/04/15 09:39:43;;;;;;;7.28;2.90;;;;;;;;;;5276739;26;20029;-61
2024/04/15 09:42:09;;;;;;;5.72;2.78;;;;;;;;;;5283599;26;20029;-59
2024/04/15 09:44:34;;;;;;;6.20;2.63;;;;;;;;;;5252773;26;20005;-59
2024/04/15 09:47:00;;;;;;;4.70;2.95;;;;;;;;;;5283736;26;20022;-57
2024/04/15 09:49:26;;;;;;;6.65;2.90;;;;;;;;;;5282386;26;20297;-58
2024/04/15 09:51:51;;;;;;;4.63;2.35;;;;;;;;;;5253822;26;20416;-58
2024/04/15 09:54:17;;;;;;;5.38;2.20;;;;;;;;;;5283531;26;20002;-59
2024/04/15 09:56:44;;;;;;;5.75;3.15;;;;;;;;;;5283191;26;20007;-59
2024/04/15 09:59:11;;;;;;;4.57;2.83;;;;;;;;;;5280999;26;19995;-57
2024/04/15 10:01:38;;;;;;;5.20;2.70;;;;;;;;;;5260418;27;19998;-59
2024/04/15 10:04:04;;;;;;;5.18;2.83;;;;;;;;;;5282898;26;20015;-60
2024/04/15 10:06:39;;;;;;;5.28;2.90;;;;;;;;;;5288336;26;20271;-60
2024/04/15 10:09:04;;;;;;;5.60;2.80;;;;;;;;;;5253069;27;20009;-58
2024/04/15 10:11:30;;;;;;;4.95;2.63;;;;;;;;;;5287929;26;20056;-59
2024/04/15 10:13:55;;;;;;;4.03;2.63;;;;;;;;;;5283620;26;20024;-57
2024/04/15 10:16:20;;;;;;;5.50;2.90;;;;;;;;;;5252377;26;20606;-57
2024/04/15 10:18:58;;;;;;;4.38;2.60;;;;;;;;;;5288993;26;20304;-59
2024/04/15 10:21:23;;;;;;;6.78;2.67;;;;;;;;;;5285683;26;20496;-58
2024/04/15 10:23:49;;;;;;;5.38;2.40;;;;;;;;;;5258395;27;20002;-64
2024/04/15 10:26:15;;;;;;;4.80;2.90;;;;;;;;;;5288432;26;20002;-60
2024/04/15 10:28:40;;;;;;;4.30;2.70;;;;;;;;;;5291814;26;20412;-61
2024/04/15 10:31:05;;;;;;;3.67;2.60;;;;;;;;;;5288607;26;20009;-58
2024/04/15 10:33:31;;;;;;;4.70;2.80;;;;;;;;;;5287125;26;20013;-56
2024/04/15 10:35:56;;;;;;;3.33;2.40;;;;;;;;;;5286043;26;20613;-58
2024/04/15 10:38:26;;;;;;;4.13;2.65;;;;;;;;;;5290441;26;20002;-59
2024/04/15 10:40:52;;;;;;;;;;;;;;;;;;5284978;26;20064;-56
2024/04/15 10:43:17;;;;;;;5.53;2.67;;;;;;;;;;5281551;27;19931;-56
2024/04/15 10:45:43;;;;;;;6.25;2.80;;;;;;;;;;5258176;26;20128;-60
2024/04/15 10:48:11;;;;;;;3.45;2.45;;;;;;;;;;5253438;26;20014;-60
2024/04/15 10:50:36;;;;;;;4.47;2.50;;;;;;;;;;5280010;26;20033;-57
2024/04/15 10:53:02;;;;;;;5.55;2.25;;;;;;;;;;5283107;26;20062;-57
2024/04/15 10:55:28;;;;;;;6.72;2.40;;;;;;;;;;5285104;26;19994;-57
2024/04/15 10:57:53;;;;;;;4.45;2.42;;;;;;;;;;5287187;26;20065;-58
2024/04/15 11:00:19;;;;;;;4.93;2.47;;;;;;;;;;5256136;27;20005;-62
2024/04/15 11:02:46;;;;;;;5.80;3.03;;;;;;;;;;5290318;26;20453;-63
2024/04/15 11:05:11;;;;;;;5.80;2.75;;;;;;;;;;5284614;26;20092;-58
2024/04/15 11:07:43;;;;;;;4.82;2.85;;;;;;;;;;5285748;26;22583;-58
2024/04/15 11:10:09;;;;;;;6.18;3.20;;;;;;;;;;5286389;26;19993;-58
2024/04/15 11:12:34;;;;;;;4.82;2.63;;;;;;;;;;5252444;27;19998;-58
2024/04/15 11:15:00;;;;;;;4.88;2.50;;;;;;;;;;5285294;26;20041;-58
2024/04/15 11:17:25;;;;;;;4.32;2.80;;;;;;;;;;5254534;27;20101;-59
2024/04/15 11:20:00;;;;;;;4.90;2.50;;;;;;;;;;5283701;26;20002;-58
2024/04/15 11:22:25;;;;;;;3.97;2.58;;;;;;;;;;5284615;26;20013;-63
2024/04/15 11:24:51;;;;;;;4.95;2.20;;;;;;;;;;5284324;26;20041;-61
2024/04/15 11:27:16;;;;;;;3.90;2.67;;;;;;;;;;5282859;26;20010;-60
2024/04/15 11:29:42;;;;;;;3.58;2.30;;;;;;;;;;5286295;26;20005;-59
2024/04/15 11:32:07;;;;;;;5.15;2.50;;;;;;;;;;5257186;27;20010;-57
2024/04/15 11:34:33;;;;;;;4.90;2.50;;;;;;;;;;5259230;26;20111;-64
2024/04/15 11:36:58;;;;;;;5.15;2.92;;;;;;;;;;5283419;26;20298;-58
2024/04/15 11:39:23;;;;;;;3.22;1.92;;;;;;;;;;5276499;27;20007;-58
2024/04/15 11:41:49;;;;;;;4.07;2.20;;;;;;;;;;5289310;26;20002;-58
2024/04/15 11:44:14;;;;;;;5.82;2.40;;;;;;;;;;5272895;27;20013;-56
2024/04/15 11:46:39;;;;;;;5.00;2.47;;;;;;;;;;5289620;27;20002;-56
2024/04/15 11:49:05;;;;;;;4.40;2.38;;;;;;;;;;5305270;26;20057;-60
2024/04/15 11:51:30;;;;;;;3.92;2.00;;;;;;;;;;5304533;26;20401;-59
2024/04/15 11:53:56;;;;;;;5.22;2.22;;;;;;;;;;5304168;27;20006;-61
2024/04/15 11:56:21;;;;;;;3.28;2.40;;;;;;;;;;5306145;26;20030;-61
2024/04/15 11:58:47;;;;;;;5.25;2.30;;;;;;;;;;5279937;27;20006;-62
2024/04/15 12:01:12;;;;;;;5.32;2.38;;;;;;;;;;5280959;26;20013;-60
2024/04/15 12:03:38;;;;;;;3.92;2.22;;;;;;;;;;5276869;27;20433;-62
2024/04/15 12:06:05;;;;;;;3.35;2.40;;;;;;;;;;5242261;27;20013;-63
2024/04/15 12:08:31;;;;;;;3.45;2.05;;;;;;;;;;5292488;27;20322;-61
2024/04/15 12:10:56;;;;;;;4.13;2.20;;;;;;;;;;5293541;26;20012;-60
2024/04/15 12:13:21;;;;;;;4.40;2.00;;;;;;;;;;5297607;26;20016;-58
2024/04/15 12:15:46;;;;;;;4.47;2.00;;;;;;;;;;5307682;27;20005;-60
2024/04/15 12:18:12;;;;;;;4.05;2.33;;;;;;;;;;5305013;27;20061;-57
2024/04/15 12:20:37;;;;;;;4.25;2.03;;;;;;;;;;5305150;27;20005;-58
2024/04/15 12:23:03;;;;;;;3.65;2.03;;;;;;;;;;5300878;26;20026;-58
2024/04/15 12:25:28;;;;;;;7.55;2.05;;;;;;;;;;5292151;26;20002;-59
2024/04/15 12:27:53;;;;;;;4.63;2.30;;;;;;;;;;5255895;27;20153;-62
2024/04/15 12:30:18;;;;;;;4.13;2.00;;;;;;;;;;5289945;27;20009;-63
2024/04/15 12:32:44;;;;;;;3.63;2.00;;;;;;;;;;5292879;26;20006;-60
2024/04/15 12:35:10;;;;;;;5.57;2.20;;;;;;;;;;5319642;26;20001;-57
2024/04/15 12:37:35;;;;;;;4.10;2.00;;;;;;;;;;5293845;27;19998;-56
2024/04/15 12:40:00;;;;;;;3.70;2.00;;;;;;;;;;5243703;27;20010;-59
2024/04/15 12:42:26;;;;;;;4.07;2.10;;;;;;;;;;5278737;27;20006;-60
2024/04/15 12:44:51;;;;;;;4.38;2.00;;;;;;;;;;5280765;27;20006;-59
2024/04/15 12:47:16;;;;;;;3.80;1.90;;;;;;;;;;5269823;27;20413;-61
2024/04/15 12:49:42;;;;;;;3.90;1.88;;;;;;;;;;5270660;27;20017;-61
2024/04/15 12:52:07;;;;;;;4.72;2.30;;;;;;;;;;5277019;27;20131;-59
2024/04/15 12:54:32;;;;;;;2.75;1.70;;;;;;;;;;5273517;27;20013;-58
2024/04/15 12:56:58;;;;;;;4.13;2.30;;;;;;;;;;5298204;27;20033;-60
2024/04/15 12:59:23;;;;;;;3.65;2.00;;;;;;;;;;5269429;27;20017;-58
2024/04/15 13:01:48;;;;;;;3.15;1.77;;;;;;;;;;5263003;26;20020;-61
2024/04/15 13:04:14;;;;;;;3.53;1.83;;;;;;;;;;5297828;27;20449;-65
2024/04/15 13:06:39;;;;;;;3.22;2.00;;;;;;;;;;5304794;27;20023;-60
2024/04/15 13:09:04;;;;;;;4.00;1.85;;;;;;;;;;5303280;27;20011;-59
2024/04/15 13:11:30;;;;;;;2.55;1.83;;;;;;;;;;5297166;27;19999;-57
2024/04/15 13:13:55;;;;;;;2.85;1.85;;;;;;;;;;5251129;27;20016;-62
2024/04/15 13:16:20;;;;;;;3.80;2.15;;;;;;;;;;5289975;27;20428;-59
2024/04/15 13:18:46;;;;;;;3.75;2.10;;;;;;;;;;5288488;27;20208;-62
2024/04/15 13:21:15;;;;;;;2.83;1.83;;;;;;;;;;5295148;27;20075;-60
2024/04/15 13:23:40;;;;;;;3.65;1.98;;;;;;;;;;5292497;26;19998;-59
2024/04/15 13:26:05;;;;;;;4.10;2.20;;;;;;;;;;5304517;26;20002;-59
2024/04/15 13:28:31;;;;;;;3.63;2.15;;;;;;;;;;5294622;26;20730;-56
2024/04/15 13:31:02;;;;;;;2.75;1.83;;;;;;;;;;5295322;27;20006;-63
2024/04/15 13:33:27;;;;;;;4.03;2.20;;;;;;;;;;5290287;26;20002;-57
2024/04/15 13:35:53;;;;;;;2.85;1.80;;;;;;;;;;5285027;26;20002;-59
2024/04/15 13:38:18;;;;;;;3.35;1.90;;;;;;;;;;5302874;27;20009;-63
2024/04/15 13:40:43;;;;;;;3.50;1.80;;;;;;;;;;5271619;27;20002;-57
2024/04/15 13:43:09;;;;;;;2.40;1.70;;;;;;;;;;5278013;26;20013;-58
2024/04/15 13:45:34;;;;;;;3.22;1.80;;;;;;;;;;5269938;27;20063;-61
2024/04/15 13:47:59;;;;;;;4.88;1.92;;;;;;;;;;5269201;27;20002;-57
2024/04/15 13:50:25;;;;;;;4.22;2.38;;;;;;;;;;5273283;27;20002;-61
2024/04/15 13:52:50;;;;;;;3.75;1.98;;;;;;;;;;5293478;27;20320;-56
2024/04/15 13:55:15;;;;;;;3.20;1.75;;;;;;;;;;5282491;27;20440;-57
2024/04/15 13:57:41;;;;;;;3.97;2.10;;;;;;;;;;5286469;26;20341;-60
2024/04/15 14:00:06;;;;;;;2.53;1.85;;;;;;;;;;5302678;27;20001;-57
2024/04/15 14:02:32;;;;;;;2.72;1.90;;;;;;;;;;5291723;27;20467;-60
2024/04/15 14:04:57;;;;;;;3.53;2.40;;;;;;;;;;5274450;27;20003;-61
2024/04/15 14:07:22;;;;;;;2.88;1.90;;;;;;;;;;5277896;27;20005;-63
2024/04/15 14:09:48;;;;;;;4.22;2.00;;;;;;;;;;5281612;26;20014;-58
2024/04/15 14:12:13;;;;;;;4.22;2.08;;;;;;;;;;5285752;27;20436;-62
2024/04/15 14:14:38;;;;;;;3.00;1.70;;;;;;;;;;5289159;27;20313;-62
2024/04/15 14:17:07;;;;;;;4.82;2.47;;;;;;;;;;5302753;27;20013;-56
2024/04/15 14:19:33;;;;;;;4.95;2.00;;;;;;;;;;5293646;26;20017;-61
2024/04/15 14:21:59;;;;;;;4.97;2.13;;;;;;;;;;5268894;27;20002;-59
2024/04/15 14:24:24;;;;;;;3.70;2.00;;;;;;;;;;5281971;26;20013;-55
2024/04/15 14:26:49;;;;;;;3.33;2.05;;;;;;;;;;5292338;27;20002;-57
2024/04/15 14:29:14;;;;;;;2.90;1.90;;;;;;;;;;5242752;27;20440;-61
2024/04/15 14:31:40;;;;;;;3.53;2.03;;;;;;;;;;5278302;27;20335;-56
2024/04/15 14:34:05;;;;;;;5.13;1.90;;;;;;;;;;5295073;26;20017;-57